sensor_id;sensor_type;location;lat;lon;timestamp;P1;durP1;ratioP1;P2;durP2;ratioP2
48945;SDS011;34999;50.940;3.998;2022-12-29T00:00:17;3.00;;;2.83;;
48945;SDS011;34999;50.940;3.998;2022-12-29T00:03:23;2.80;;;2.70;;
48945;SDS011;34999;50.940;3.998;2022-12-29T00:05:57;2.80;;;2.60;;
48945;SDS011;34999;50.940;3.998;2022-12-29T00:08:27;2.37;;;2.27;;
48945;SDS011;34999;50.940;3.998;2022-12-29T00:11:07;2.30;;;2.20;;
48945;SDS011;34999;50.940;3.998;2022-12-29T00:13:37;2.03;;;1.93;;
48945;SDS011;34999;50.940;3.998;2022-12-29T00:16:23;2.30;;;2.10;;
48945;SDS011;34999;50.940;3.998;2022-12-29T00:18:53;2.60;;;2.40;;
48945;SDS011;34999;50.940;3.998;2022-12-29T00:21:23;3.50;;;2.10;;
48945;SDS011;34999;50.940;3.998;2022-12-29T00:24:09;1.50;;;1.50;;
48945;SDS011;34999;50.940;3.998;2022-12-29T00:26:58;2.00;;;1.90;;
48945;SDS011;34999;50.940;3.998;2022-12-29T00:29:55;2.00;;;1.90;;
48945;SDS011;34999;50.940;3.998;2022-12-29T00:32:40;1.57;;;1.47;;
48945;SDS011;34999;50.940;3.998;2022-12-29T00:35:36;1.90;;;1.40;;
48945;SDS011;34999;50.940;3.998;2022-12-29T00:38:11;4.33;;;1.50;;
48945;SDS011;34999;50.940;3.998;2022-12-29T00:41:00;3.33;;;1.70;;
48945;SDS011;34999;50.940;3.998;2022-12-29T00:43:46;1.50;;;1.40;;
48945;SDS011;34999;50.940;3.998;2022-12-29T00:46:33;4.67;;;1.60;;
48945;SDS011;34999;50.940;3.998;2022-12-29T00:49:03;2.30;;;1.60;;
48945;SDS011;34999;50.940;3.998;2022-12-29T00:52:05;3.17;;;1.70;;
48945;SDS011;34999;50.940;3.998;2022-12-29T00:54:37;2.07;;;1.50;;
48945;SDS011;34999;50.940;3.998;2022-12-29T00:57:08;2.40;;;1.60;;
48945;SDS011;34999;50.940;3.998;2022-12-29T00:59:37;1.60;;;1.50;;
48945;SDS011;34999;50.940;3.998;2022-12-29T01:02:06;2.47;;;1.40;;
48945;SDS011;34999;50.940;3.998;2022-12-29T01:04:36;3.40;;;1.77;;
48945;SDS011;34999;50.940;3.998;2022-12-29T01:07:04;7.13;;;1.67;;
48945;SDS011;34999;50.940;3.998;2022-12-29T01:09:33;3.47;;;1.80;;
48945;SDS011;34999;50.940;3.998;2022-12-29T01:12:20;3.73;;;1.70;;
48945;SDS011;34999;50.940;3.998;2022-12-29T01:15:10;3.37;;;1.70;;
48945;SDS011;34999;50.940;3.998;2022-12-29T01:17:42;4.23;;;1.80;;
48945;SDS011;34999;50.940;3.998;2022-12-29T01:20:10;4.10;;;1.67;;
48945;SDS011;34999;50.940;3.998;2022-12-29T01:22:39;2.40;;;1.53;;
48945;SDS011;34999;50.940;3.998;2022-12-29T01:25:11;2.80;;;1.33;;
48945;SDS011;34999;50.940;3.998;2022-12-29T01:27:41;6.83;;;1.53;;
48945;SDS011;34999;50.940;3.998;2022-12-29T01:30:10;4.73;;;2.20;;
48945;SDS011;34999;50.940;3.998;2022-12-29T01:32:39;2.67;;;1.50;;
48945;SDS011;34999;50.940;3.998;2022-12-29T01:35:08;1.70;;;1.70;;
48945;SDS011;34999;50.940;3.998;2022-12-29T01:37:37;4.77;;;1.73;;
48945;SDS011;34999;50.940;3.998;2022-12-29T01:40:05;3.43;;;1.60;;
48945;SDS011;34999;50.940;3.998;2022-12-29T01:42:35;3.60;;;1.63;;
48945;SDS011;34999;50.940;3.998;2022-12-29T01:45:09;1.60;;;1.50;;
48945;SDS011;34999;50.940;3.998;2022-12-29T01:47:40;2.57;;;1.50;;
48945;SDS011;34999;50.940;3.998;2022-12-29T01:50:11;5.50;;;1.97;;
48945;SDS011;34999;50.940;3.998;2022-12-29T01:52:45;2.63;;;1.60;;
48945;SDS011;34999;50.940;3.998;2022-12-29T01:55:18;3.37;;;1.40;;
48945;SDS011;34999;50.940;3.998;2022-12-29T01:57:48;1.43;;;1.43;;
48945;SDS011;34999;50.940;3.998;2022-12-29T02:00:20;1.87;;;1.40;;
48945;SDS011;34999;50.940;3.998;2022-12-29T02:07:39;2.80;;;1.33;;
48945;SDS011;34999;50.940;3.998;2022-12-29T02:10:10;3.63;;;1.40;;
48945;SDS011;34999;50.940;3.998;2022-12-29T02:12:40;3.97;;;1.47;;
48945;SDS011;34999;50.940;3.998;2022-12-29T02:15:09;1.70;;;1.33;;
48945;SDS011;34999;50.940;3.998;2022-12-29T02:17:41;3.57;;;1.70;;
48945;SDS011;34999;50.940;3.998;2022-12-29T02:23:30;4.00;;;1.50;;
48945;SDS011;34999;50.940;3.998;2022-12-29T02:26:27;7.20;;;1.70;;
48945;SDS011;34999;50.940;3.998;2022-12-29T02:29:20;3.20;;;1.30;;
48945;SDS011;34999;50.940;3.998;2022-12-29T02:32:05;7.37;;;1.60;;
48945;SDS011;34999;50.940;3.998;2022-12-29T02:34:41;6.80;;;1.30;;
48945;SDS011;34999;50.940;3.998;2022-12-29T02:37:22;1.60;;;1.50;;
48945;SDS011;34999;50.940;3.998;2022-12-29T02:39:55;2.77;;;1.60;;
48945;SDS011;34999;50.940;3.998;2022-12-29T02:42:30;3.97;;;1.67;;
48945;SDS011;34999;50.940;3.998;2022-12-29T02:45:04;3.63;;;1.50;;
48945;SDS011;34999;50.940;3.998;2022-12-29T02:47:41;2.10;;;1.83;;
48945;SDS011;34999;50.940;3.998;2022-12-29T02:50:18;4.63;;;1.70;;
48945;SDS011;34999;50.940;3.998;2022-12-29T02:52:51;4.87;;;1.50;;
48945;SDS011;34999;50.940;3.998;2022-12-29T02:55:25;6.23;;;1.77;;
48945;SDS011;34999;50.940;3.998;2022-12-29T02:58:06;6.50;;;1.67;;
48945;SDS011;34999;50.940;3.998;2022-12-29T03:00:47;5.53;;;1.40;;
48945;SDS011;34999;50.940;3.998;2022-12-29T03:03:26;3.43;;;1.63;;
48945;SDS011;34999;50.940;3.998;2022-12-29T03:06:10;4.10;;;1.60;;
48945;SDS011;34999;50.940;3.998;2022-12-29T03:08:55;8.73;;;1.73;;
48945;SDS011;34999;50.940;3.998;2022-12-29T03:11:46;3.73;;;1.30;;
48945;SDS011;34999;50.940;3.998;2022-12-29T03:14:39;2.17;;;1.40;;
48945;SDS011;34999;50.940;3.998;2022-12-29T03:17:35;3.50;;;1.37;;
48945;SDS011;34999;50.940;3.998;2022-12-29T03:20:13;2.67;;;1.50;;
48945;SDS011;34999;50.940;3.998;2022-12-29T03:22:51;5.80;;;1.47;;
48945;SDS011;34999;50.940;3.998;2022-12-29T03:25:25;3.10;;;1.63;;
48945;SDS011;34999;50.940;3.998;2022-12-29T03:27:58;7.00;;;1.50;;
48945;SDS011;34999;50.940;3.998;2022-12-29T03:30:29;4.17;;;1.43;;
48945;SDS011;34999;50.940;3.998;2022-12-29T03:33:02;6.10;;;1.50;;
48945;SDS011;34999;50.940;3.998;2022-12-29T03:35:37;6.53;;;2.00;;
48945;SDS011;34999;50.940;3.998;2022-12-29T03:38:10;7.13;;;1.63;;
48945;SDS011;34999;50.940;3.998;2022-12-29T03:40:44;5.47;;;1.67;;
48945;SDS011;34999;50.940;3.998;2022-12-29T03:43:14;3.53;;;1.77;;
48945;SDS011;34999;50.940;3.998;2022-12-29T03:45:45;7.37;;;1.90;;
48945;SDS011;34999;50.940;3.998;2022-12-29T03:48:14;5.47;;;1.50;;
48945;SDS011;34999;50.940;3.998;2022-12-29T03:50:46;7.20;;;1.73;;
48945;SDS011;34999;50.940;3.998;2022-12-29T03:53:14;5.87;;;1.50;;
48945;SDS011;34999;50.940;3.998;2022-12-29T03:55:44;10.77;;;1.87;;
48945;SDS011;34999;50.940;3.998;2022-12-29T03:58:12;7.70;;;2.13;;
48945;SDS011;34999;50.940;3.998;2022-12-29T04:00:40;5.23;;;1.80;;
48945;SDS011;34999;50.940;3.998;2022-12-29T04:03:09;6.77;;;1.90;;
48945;SDS011;34999;50.940;3.998;2022-12-29T04:05:37;2.97;;;1.57;;
48945;SDS011;34999;50.940;3.998;2022-12-29T04:08:07;4.93;;;1.50;;
48945;SDS011;34999;50.940;3.998;2022-12-29T04:10:35;5.53;;;1.47;;
48945;SDS011;34999;50.940;3.998;2022-12-29T04:13:04;6.50;;;2.23;;
48945;SDS011;34999;50.940;3.998;2022-12-29T04:15:34;3.07;;;1.53;;
48945;SDS011;34999;50.940;3.998;2022-12-29T04:18:04;4.53;;;1.40;;
48945;SDS011;34999;50.940;3.998;2022-12-29T04:20:35;5.57;;;1.77;;
48945;SDS011;34999;50.940;3.998;2022-12-29T04:23:23;7.33;;;1.50;;
48945;SDS011;34999;50.940;3.998;2022-12-29T04:25:51;4.10;;;1.80;;
48945;SDS011;34999;50.940;3.998;2022-12-29T04:28:19;3.23;;;1.50;;
48945;SDS011;34999;50.940;3.998;2022-12-29T04:30:48;3.87;;;1.43;;
48945;SDS011;34999;50.940;3.998;2022-12-29T04:33:16;4.97;;;1.50;;
48945;SDS011;34999;50.940;3.998;2022-12-29T04:35:45;3.30;;;1.50;;
48945;SDS011;34999;50.940;3.998;2022-12-29T04:38:14;2.80;;;1.50;;
48945;SDS011;34999;50.940;3.998;2022-12-29T04:40:45;2.97;;;1.47;;
48945;SDS011;34999;50.940;3.998;2022-12-29T04:43:14;3.37;;;1.53;;
48945;SDS011;34999;50.940;3.998;2022-12-29T04:45:43;4.33;;;1.47;;
48945;SDS011;34999;50.940;3.998;2022-12-29T04:48:12;1.40;;;1.30;;
48945;SDS011;34999;50.940;3.998;2022-12-29T04:50:42;1.93;;;1.33;;
48945;SDS011;34999;50.940;3.998;2022-12-29T04:53:11;3.73;;;1.23;;
48945;SDS011;34999;50.940;3.998;2022-12-29T04:55:39;2.17;;;1.40;;
48945;SDS011;34999;50.940;3.998;2022-12-29T04:58:08;3.03;;;1.57;;
48945;SDS011;34999;50.940;3.998;2022-12-29T05:00:43;5.17;;;1.57;;
48945;SDS011;34999;50.940;3.998;2022-12-29T05:03:49;4.60;;;1.53;;
48945;SDS011;34999;50.940;3.998;2022-12-29T05:06:18;4.47;;;1.53;;
48945;SDS011;34999;50.940;3.998;2022-12-29T05:08:47;5.13;;;1.40;;
48945;SDS011;34999;50.940;3.998;2022-12-29T05:11:15;3.03;;;1.50;;
48945;SDS011;34999;50.940;3.998;2022-12-29T05:22:48;3.97;;;1.33;;
48945;SDS011;34999;50.940;3.998;2022-12-29T05:25:16;10.17;;;1.80;;
48945;SDS011;34999;50.940;3.998;2022-12-29T05:27:44;7.43;;;1.90;;
48945;SDS011;34999;50.940;3.998;2022-12-29T05:30:13;5.13;;;1.63;;
48945;SDS011;34999;50.940;3.998;2022-12-29T05:32:42;3.13;;;1.40;;
48945;SDS011;34999;50.940;3.998;2022-12-29T05:35:10;4.50;;;1.57;;
48945;SDS011;34999;50.940;3.998;2022-12-29T05:37:39;3.43;;;1.80;;
48945;SDS011;34999;50.940;3.998;2022-12-29T05:40:10;3.50;;;1.53;;
48945;SDS011;34999;50.940;3.998;2022-12-29T05:42:39;6.37;;;1.73;;
48945;SDS011;34999;50.940;3.998;2022-12-29T05:45:08;4.73;;;1.67;;
48945;SDS011;34999;50.940;3.998;2022-12-29T05:47:37;4.87;;;1.80;;
48945;SDS011;34999;50.940;3.998;2022-12-29T05:50:05;6.97;;;2.00;;
48945;SDS011;34999;50.940;3.998;2022-12-29T05:52:34;5.77;;;1.70;;
48945;SDS011;34999;50.940;3.998;2022-12-29T05:55:05;8.13;;;1.67;;
48945;SDS011;34999;50.940;3.998;2022-12-29T05:57:35;5.70;;;1.63;;
48945;SDS011;34999;50.940;3.998;2022-12-29T06:00:04;7.27;;;1.67;;
48945;SDS011;34999;50.940;3.998;2022-12-29T06:02:34;3.07;;;1.70;;
48945;SDS011;34999;50.940;3.998;2022-12-29T06:05:03;4.03;;;1.60;;
48945;SDS011;34999;50.940;3.998;2022-12-29T06:07:32;4.10;;;1.57;;
48945;SDS011;34999;50.940;3.998;2022-12-29T06:10:00;3.17;;;1.67;;
48945;SDS011;34999;50.940;3.998;2022-12-29T06:12:28;5.27;;;1.60;;
48945;SDS011;34999;50.940;3.998;2022-12-29T06:14:58;5.47;;;1.57;;
48945;SDS011;34999;50.940;3.998;2022-12-29T06:17:26;7.53;;;2.30;;
48945;SDS011;34999;50.940;3.998;2022-12-29T06:19:55;8.20;;;1.70;;
48945;SDS011;34999;50.940;3.998;2022-12-29T06:22:23;7.03;;;1.80;;
48945;SDS011;34999;50.940;3.998;2022-12-29T06:24:52;8.50;;;1.83;;
48945;SDS011;34999;50.940;3.998;2022-12-29T06:27:25;5.73;;;2.17;;
48945;SDS011;34999;50.940;3.998;2022-12-29T06:29:53;8.07;;;1.97;;
48945;SDS011;34999;50.940;3.998;2022-12-29T06:32:23;5.83;;;2.17;;
48945;SDS011;34999;50.940;3.998;2022-12-29T06:34:54;9.20;;;2.30;;
48945;SDS011;34999;50.940;3.998;2022-12-29T06:37:22;9.83;;;2.20;;
48945;SDS011;34999;50.940;3.998;2022-12-29T06:39:50;5.83;;;1.70;;
48945;SDS011;34999;50.940;3.998;2022-12-29T06:42:18;6.67;;;2.03;;
48945;SDS011;34999;50.940;3.998;2022-12-29T06:44:47;7.70;;;2.03;;
48945;SDS011;34999;50.940;3.998;2022-12-29T06:47:15;10.83;;;2.10;;
48945;SDS011;34999;50.940;3.998;2022-12-29T06:49:46;7.47;;;2.43;;
48945;SDS011;34999;50.940;3.998;2022-12-29T06:52:14;8.43;;;2.20;;
48945;SDS011;34999;50.940;3.998;2022-12-29T06:54:42;6.37;;;2.20;;
48945;SDS011;34999;50.940;3.998;2022-12-29T06:57:11;13.17;;;2.43;;
48945;SDS011;34999;50.940;3.998;2022-12-29T06:59:39;4.83;;;1.90;;
48945;SDS011;34999;50.940;3.998;2022-12-29T07:02:08;8.77;;;2.13;;
48945;SDS011;34999;50.940;3.998;2022-12-29T07:04:38;11.40;;;2.47;;
48945;SDS011;34999;50.940;3.998;2022-12-29T07:07:08;7.83;;;2.10;;
48945;SDS011;34999;50.940;3.998;2022-12-29T07:09:36;11.90;;;2.67;;
48945;SDS011;34999;50.940;3.998;2022-12-29T07:12:05;9.57;;;2.10;;
48945;SDS011;34999;50.940;3.998;2022-12-29T07:14:33;11.33;;;2.30;;
48945;SDS011;34999;50.940;3.998;2022-12-29T07:17:08;8.70;;;2.27;;
48945;SDS011;34999;50.940;3.998;2022-12-29T07:19:37;10.87;;;2.40;;
48945;SDS011;34999;50.940;3.998;2022-12-29T07:22:05;4.17;;;2.07;;
48945;SDS011;34999;50.940;3.998;2022-12-29T07:24:35;9.47;;;2.43;;
48945;SDS011;34999;50.940;3.998;2022-12-29T07:27:04;10.57;;;1.87;;
48945;SDS011;34999;50.940;3.998;2022-12-29T07:29:32;12.37;;;2.27;;
48945;SDS011;34999;50.940;3.998;2022-12-29T07:32:01;5.67;;;2.13;;
48945;SDS011;34999;50.940;3.998;2022-12-29T07:34:29;9.23;;;2.10;;
48945;SDS011;34999;50.940;3.998;2022-12-29T07:36:57;10.13;;;2.20;;
48945;SDS011;34999;50.940;3.998;2022-12-29T07:39:26;13.33;;;2.40;;
48945;SDS011;34999;50.940;3.998;2022-12-29T07:41:56;11.33;;;2.37;;
48945;SDS011;34999;50.940;3.998;2022-12-29T07:44:30;5.27;;;1.80;;
48945;SDS011;34999;50.940;3.998;2022-12-29T07:46:58;14.13;;;2.50;;
48945;SDS011;34999;50.940;3.998;2022-12-29T07:49:27;10.30;;;2.07;;
48945;SDS011;34999;50.940;3.998;2022-12-29T07:51:56;11.70;;;2.50;;
48945;SDS011;34999;50.940;3.998;2022-12-29T07:54:24;10.43;;;2.80;;
48945;SDS011;34999;50.940;3.998;2022-12-29T07:56:52;8.27;;;2.50;;
48945;SDS011;34999;50.940;3.998;2022-12-29T07:59:22;9.97;;;3.00;;
48945;SDS011;34999;50.940;3.998;2022-12-29T08:01:51;8.47;;;2.20;;
48945;SDS011;34999;50.940;3.998;2022-12-29T08:04:19;9.63;;;2.03;;
48945;SDS011;34999;50.940;3.998;2022-12-29T08:06:48;8.60;;;2.40;;
48945;SDS011;34999;50.940;3.998;2022-12-29T08:09:16;11.57;;;2.37;;
48945;SDS011;34999;50.940;3.998;2022-12-29T08:11:50;5.27;;;2.37;;
48945;SDS011;34999;50.940;3.998;2022-12-29T08:14:18;8.23;;;2.87;;
48945;SDS011;34999;50.940;3.998;2022-12-29T08:16:48;9.53;;;2.07;;
48945;SDS011;34999;50.940;3.998;2022-12-29T08:19:16;9.57;;;2.00;;
48945;SDS011;34999;50.940;3.998;2022-12-29T08:21:45;8.00;;;2.67;;
48945;SDS011;34999;50.940;3.998;2022-12-29T08:24:13;14.53;;;2.93;;
48945;SDS011;34999;50.940;3.998;2022-12-29T08:26:41;8.67;;;2.00;;
48945;SDS011;34999;50.940;3.998;2022-12-29T08:29:10;8.33;;;2.27;;
48945;SDS011;34999;50.940;3.998;2022-12-29T08:31:38;5.67;;;2.03;;
48945;SDS011;34999;50.940;3.998;2022-12-29T08:34:08;8.80;;;2.50;;
48945;SDS011;34999;50.940;3.998;2022-12-29T08:36:36;10.40;;;2.50;;
48945;SDS011;34999;50.940;3.998;2022-12-29T08:39:05;6.70;;;2.47;;
48945;SDS011;34999;50.940;3.998;2022-12-29T08:41:33;14.47;;;3.70;;
48945;SDS011;34999;50.940;3.998;2022-12-29T08:44:01;12.93;;;2.50;;
48945;SDS011;34999;50.940;3.998;2022-12-29T08:46:30;9.67;;;2.30;;
48945;SDS011;34999;50.940;3.998;2022-12-29T08:48:58;9.10;;;2.20;;
48945;SDS011;34999;50.940;3.998;2022-12-29T08:51:28;15.40;;;2.50;;
48945;SDS011;34999;50.940;3.998;2022-12-29T08:53:57;8.97;;;2.67;;
48945;SDS011;34999;50.940;3.998;2022-12-29T08:56:26;12.67;;;2.47;;
48945;SDS011;34999;50.940;3.998;2022-12-29T08:58:55;11.40;;;2.63;;
48945;SDS011;34999;50.940;3.998;2022-12-29T09:01:23;11.10;;;2.40;;
48945;SDS011;34999;50.940;3.998;2022-12-29T09:03:52;15.90;;;3.10;;
48945;SDS011;34999;50.940;3.998;2022-12-29T09:06:43;6.33;;;2.10;;
48945;SDS011;34999;50.940;3.998;2022-12-29T09:09:11;10.47;;;2.80;;
48945;SDS011;34999;50.940;3.998;2022-12-29T09:11:39;11.00;;;2.93;;
48945;SDS011;34999;50.940;3.998;2022-12-29T09:14:08;8.43;;;2.47;;
48945;SDS011;34999;50.940;3.998;2022-12-29T09:16:38;10.23;;;2.50;;
48945;SDS011;34999;50.940;3.998;2022-12-29T09:19:20;10.37;;;2.50;;
48945;SDS011;34999;50.940;3.998;2022-12-29T09:21:50;12.73;;;2.60;;
48945;SDS011;34999;50.940;3.998;2022-12-29T09:24:18;14.47;;;2.53;;
48945;SDS011;34999;50.940;3.998;2022-12-29T09:26:46;9.97;;;2.83;;
48945;SDS011;34999;50.940;3.998;2022-12-29T09:29:15;10.33;;;2.30;;
48945;SDS011;34999;50.940;3.998;2022-12-29T09:31:43;12.27;;;2.60;;
48945;SDS011;34999;50.940;3.998;2022-12-29T09:34:12;16.53;;;3.07;;
48945;SDS011;34999;50.940;3.998;2022-12-29T09:36:40;8.83;;;2.47;;
48945;SDS011;34999;50.940;3.998;2022-12-29T09:39:10;10.87;;;2.60;;
48945;SDS011;34999;50.940;3.998;2022-12-29T09:41:40;13.43;;;3.07;;
48945;SDS011;34999;50.940;3.998;2022-12-29T09:44:17;14.50;;;2.90;;
48945;SDS011;34999;50.940;3.998;2022-12-29T09:46:50;11.73;;;3.23;;
48945;SDS011;34999;50.940;3.998;2022-12-29T09:49:23;8.47;;;2.57;;
48945;SDS011;34999;50.940;3.998;2022-12-29T09:51:57;12.60;;;3.20;;
48945;SDS011;34999;50.940;3.998;2022-12-29T09:54:34;16.13;;;3.00;;
48945;SDS011;34999;50.940;3.998;2022-12-29T09:57:10;13.90;;;2.97;;
48945;SDS011;34999;50.940;3.998;2022-12-29T09:59:45;18.40;;;3.30;;
48945;SDS011;34999;50.940;3.998;2022-12-29T10:02:21;18.90;;;3.80;;
48945;SDS011;34999;50.940;3.998;2022-12-29T10:04:56;14.10;;;2.60;;
48945;SDS011;34999;50.940;3.998;2022-12-29T10:07:28;15.63;;;2.70;;
48945;SDS011;34999;50.940;3.998;2022-12-29T10:10:10;16.23;;;3.10;;
48945;SDS011;34999;50.940;3.998;2022-12-29T10:12:52;9.50;;;2.83;;
48945;SDS011;34999;50.940;3.998;2022-12-29T10:15:32;8.80;;;2.47;;
48945;SDS011;34999;50.940;3.998;2022-12-29T10:18:13;9.37;;;2.50;;
48945;SDS011;34999;50.940;3.998;2022-12-29T10:21:00;13.77;;;3.20;;
48945;SDS011;34999;50.940;3.998;2022-12-29T10:23:39;12.87;;;3.23;;
48945;SDS011;34999;50.940;3.998;2022-12-29T10:26:11;10.70;;;2.77;;
48945;SDS011;34999;50.940;3.998;2022-12-29T10:28:43;16.27;;;2.87;;
48945;SDS011;34999;50.940;3.998;2022-12-29T10:31:16;10.30;;;2.57;;
48945;SDS011;34999;50.940;3.998;2022-12-29T10:33:51;12.50;;;3.03;;
48945;SDS011;34999;50.940;3.998;2022-12-29T10:36:25;8.77;;;2.80;;
48945;SDS011;34999;50.940;3.998;2022-12-29T10:39:01;19.37;;;2.70;;
48945;SDS011;34999;50.940;3.998;2022-12-29T10:41:36;8.33;;;2.33;;
48945;SDS011;34999;50.940;3.998;2022-12-29T10:44:08;13.17;;;3.23;;
48945;SDS011;34999;50.940;3.998;2022-12-29T10:46:40;10.80;;;2.73;;
48945;SDS011;34999;50.940;3.998;2022-12-29T10:49:12;13.30;;;2.73;;
48945;SDS011;34999;50.940;3.998;2022-12-29T10:51:47;10.63;;;2.70;;
48945;SDS011;34999;50.940;3.998;2022-12-29T10:54:19;7.57;;;2.60;;
48945;SDS011;34999;50.940;3.998;2022-12-29T10:56:53;10.47;;;2.53;;
48945;SDS011;34999;50.940;3.998;2022-12-29T10:59:28;15.93;;;3.47;;
48945;SDS011;34999;50.940;3.998;2022-12-29T11:02:06;15.07;;;3.43;;
48945;SDS011;34999;50.940;3.998;2022-12-29T11:05:37;15.67;;;3.07;;
48945;SDS011;34999;50.940;3.998;2022-12-29T11:11:42;14.20;;;2.90;;
48945;SDS011;34999;50.940;3.998;2022-12-29T11:14:13;16.53;;;2.80;;
48945;SDS011;34999;50.940;3.998;2022-12-29T11:16:45;13.40;;;3.00;;
48945;SDS011;34999;50.940;3.998;2022-12-29T11:19:25;13.10;;;3.10;;
48945;SDS011;34999;50.940;3.998;2022-12-29T11:21:56;15.07;;;2.80;;
48945;SDS011;34999;50.940;3.998;2022-12-29T11:24:43;10.67;;;2.87;;
48945;SDS011;34999;50.940;3.998;2022-12-29T11:27:15;11.60;;;2.67;;
48945;SDS011;34999;50.940;3.998;2022-12-29T11:29:47;8.33;;;2.50;;
48945;SDS011;34999;50.940;3.998;2022-12-29T11:32:17;11.00;;;2.43;;
48945;SDS011;34999;50.940;3.998;2022-12-29T11:34:54;12.77;;;2.90;;
48945;SDS011;34999;50.940;3.998;2022-12-29T11:37:25;11.03;;;2.70;;
48945;SDS011;34999;50.940;3.998;2022-12-29T11:39:57;8.87;;;2.50;;
48945;SDS011;34999;50.940;3.998;2022-12-29T11:42:30;12.00;;;3.13;;
48945;SDS011;34999;50.940;3.998;2022-12-29T11:45:05;13.30;;;2.33;;
48945;SDS011;34999;50.940;3.998;2022-12-29T11:47:41;10.70;;;3.10;;
48945;SDS011;34999;50.940;3.998;2022-12-29T11:50:16;9.20;;;2.53;;
48945;SDS011;34999;50.940;3.998;2022-12-29T11:52:46;12.73;;;2.80;;
48945;SDS011;34999;50.940;3.998;2022-12-29T11:55:19;10.30;;;2.27;;
48945;SDS011;34999;50.940;3.998;2022-12-29T11:57:49;11.10;;;2.77;;
48945;SDS011;34999;50.940;3.998;2022-12-29T12:00:22;15.70;;;3.10;;
48945;SDS011;34999;50.940;3.998;2022-12-29T12:02:53;11.53;;;2.33;;
48945;SDS011;34999;50.940;3.998;2022-12-29T12:05:28;9.70;;;2.43;;
48945;SDS011;34999;50.940;3.998;2022-12-29T12:08:06;8.67;;;2.33;;
48945;SDS011;34999;50.940;3.998;2022-12-29T12:10:47;11.60;;;2.40;;
48945;SDS011;34999;50.940;3.998;2022-12-29T12:13:22;12.53;;;2.50;;
48945;SDS011;34999;50.940;3.998;2022-12-29T12:15:57;10.23;;;2.57;;
48945;SDS011;34999;50.940;3.998;2022-12-29T12:18:34;12.60;;;2.80;;
48945;SDS011;34999;50.940;3.998;2022-12-29T12:21:10;7.63;;;2.13;;
48945;SDS011;34999;50.940;3.998;2022-12-29T12:23:49;6.73;;;2.40;;
48945;SDS011;34999;50.940;3.998;2022-12-29T12:26:54;7.77;;;2.33;;
48945;SDS011;34999;50.940;3.998;2022-12-29T12:29:26;5.93;;;2.13;;
48945;SDS011;34999;50.940;3.998;2022-12-29T12:32:04;4.63;;;2.00;;
48945;SDS011;34999;50.940;3.998;2022-12-29T12:34:41;9.97;;;2.00;;
48945;SDS011;34999;50.940;3.998;2022-12-29T12:37:28;7.90;;;2.40;;
48945;SDS011;34999;50.940;3.998;2022-12-29T12:43:29;5.20;;;2.23;;
48945;SDS011;34999;50.940;3.998;2022-12-29T12:46:18;8.73;;;2.50;;
48945;SDS011;34999;50.940;3.998;2022-12-29T12:49:06;11.43;;;2.63;;
48945;SDS011;34999;50.940;3.998;2022-12-29T12:51:50;10.87;;;3.10;;
48945;SDS011;34999;50.940;3.998;2022-12-29T12:54:44;9.60;;;2.50;;
48945;SDS011;34999;50.940;3.998;2022-12-29T12:57:33;10.57;;;2.63;;
48945;SDS011;34999;50.940;3.998;2022-12-29T13:00:15;14.03;;;2.50;;
48945;SDS011;34999;50.940;3.998;2022-12-29T13:02:49;9.80;;;2.83;;
48945;SDS011;34999;50.940;3.998;2022-12-29T13:05:31;7.13;;;2.60;;
48945;SDS011;34999;50.940;3.998;2022-12-29T13:08:19;9.17;;;2.63;;
48945;SDS011;34999;50.940;3.998;2022-12-29T13:11:02;7.03;;;2.63;;
48945;SDS011;34999;50.940;3.998;2022-12-29T13:13:47;4.30;;;2.40;;
48945;SDS011;34999;50.940;3.998;2022-12-29T13:16:36;7.63;;;2.67;;
48945;SDS011;34999;50.940;3.998;2022-12-29T13:19:13;6.03;;;2.47;;
48945;SDS011;34999;50.940;3.998;2022-12-29T13:21:57;5.97;;;2.07;;
48945;SDS011;34999;50.940;3.998;2022-12-29T13:24:34;3.97;;;1.90;;
48945;SDS011;34999;50.940;3.998;2022-12-29T13:27:16;8.73;;;1.97;;
48945;SDS011;34999;50.940;3.998;2022-12-29T13:29:51;3.10;;;1.47;;
48945;SDS011;34999;50.940;3.998;2022-12-29T13:32:32;3.87;;;1.90;;
48945;SDS011;34999;50.940;3.998;2022-12-29T13:35:17;4.10;;;1.90;;
48945;SDS011;34999;50.940;3.998;2022-12-29T13:37:56;6.87;;;2.17;;
48945;SDS011;34999;50.940;3.998;2022-12-29T13:40:32;4.53;;;1.83;;
48945;SDS011;34999;50.940;3.998;2022-12-29T13:43:06;10.67;;;2.23;;
48945;SDS011;34999;50.940;3.998;2022-12-29T13:45:35;5.47;;;2.20;;
48945;SDS011;34999;50.940;3.998;2022-12-29T13:48:05;6.33;;;2.30;;
48945;SDS011;34999;50.940;3.998;2022-12-29T13:50:43;6.50;;;1.60;;
48945;SDS011;34999;50.940;3.998;2022-12-29T13:53:18;4.87;;;1.40;;
48945;SDS011;34999;50.940;3.998;2022-12-29T13:55:55;1.27;;;1.20;;
48945;SDS011;34999;50.940;3.998;2022-12-29T13:58:27;3.17;;;1.50;;
48945;SDS011;34999;50.940;3.998;2022-12-29T14:01:03;2.10;;;1.50;;
48945;SDS011;34999;50.940;3.998;2022-12-29T14:06:26;1.40;;;1.30;;
48945;SDS011;34999;50.940;3.998;2022-12-29T14:08:57;2.17;;;1.27;;
48945;SDS011;34999;50.940;3.998;2022-12-29T14:11:31;5.30;;;1.50;;
48945;SDS011;34999;50.940;3.998;2022-12-29T14:14:10;1.83;;;1.20;;
48945;SDS011;34999;50.940;3.998;2022-12-29T14:16:40;3.63;;;1.57;;
48945;SDS011;34999;50.940;3.998;2022-12-29T14:19:11;4.93;;;1.50;;
48945;SDS011;34999;50.940;3.998;2022-12-29T14:21:49;2.33;;;1.50;;
48945;SDS011;34999;50.940;3.998;2022-12-29T14:24:28;9.50;;;2.13;;
48945;SDS011;34999;50.940;3.998;2022-12-29T14:33:15;6.40;;;2.00;;
48945;SDS011;34999;50.940;3.998;2022-12-29T14:35:44;1.77;;;1.63;;
48945;SDS011;34999;50.940;3.998;2022-12-29T14:38:17;6.23;;;2.63;;
48945;SDS011;34999;50.940;3.998;2022-12-29T14:40:49;5.80;;;2.40;;
48945;SDS011;34999;50.940;3.998;2022-12-29T14:43:24;4.17;;;2.60;;
48945;SDS011;34999;50.940;3.998;2022-12-29T14:45:55;5.67;;;2.30;;
48945;SDS011;34999;50.940;3.998;2022-12-29T14:48:30;4.17;;;2.40;;
48945;SDS011;34999;50.940;3.998;2022-12-29T14:51:17;3.70;;;2.20;;
48945;SDS011;34999;50.940;3.998;2022-12-29T14:53:48;6.73;;;2.03;;
48945;SDS011;34999;50.940;3.998;2022-12-29T14:56:20;6.97;;;2.00;;
48945;SDS011;34999;50.940;3.998;2022-12-29T14:58:54;4.23;;;2.40;;
48945;SDS011;34999;50.940;3.998;2022-12-29T15:01:26;10.30;;;2.43;;
48945;SDS011;34999;50.940;3.998;2022-12-29T15:04:03;6.40;;;2.40;;
48945;SDS011;34999;50.940;3.998;2022-12-29T15:06:41;5.93;;;2.40;;
48945;SDS011;34999;50.940;3.998;2022-12-29T15:09:14;7.30;;;2.27;;
48945;SDS011;34999;50.940;3.998;2022-12-29T15:11:52;6.67;;;2.53;;
48945;SDS011;34999;50.940;3.998;2022-12-29T15:14:32;5.20;;;2.30;;
48945;SDS011;34999;50.940;3.998;2022-12-29T15:17:08;11.67;;;2.50;;
48945;SDS011;34999;50.940;3.998;2022-12-29T15:19:38;9.33;;;2.40;;
48945;SDS011;34999;50.940;3.998;2022-12-29T15:22:07;6.40;;;2.40;;
48945;SDS011;34999;50.940;3.998;2022-12-29T15:24:40;12.87;;;2.43;;
48945;SDS011;34999;50.940;3.998;2022-12-29T15:27:12;9.63;;;2.50;;
48945;SDS011;34999;50.940;3.998;2022-12-29T15:29:43;10.70;;;2.90;;
48945;SDS011;34999;50.940;3.998;2022-12-29T15:32:17;12.07;;;2.60;;
48945;SDS011;34999;50.940;3.998;2022-12-29T15:34:48;10.47;;;2.40;;
48945;SDS011;34999;50.940;3.998;2022-12-29T15:37:19;12.00;;;2.60;;
48945;SDS011;34999;50.940;3.998;2022-12-29T15:39:49;6.17;;;2.03;;
48945;SDS011;34999;50.940;3.998;2022-12-29T15:42:23;7.27;;;2.03;;
48945;SDS011;34999;50.940;3.998;2022-12-29T15:45:12;5.50;;;2.13;;
48945;SDS011;34999;50.940;3.998;2022-12-29T15:47:42;7.53;;;2.30;;
48945;SDS011;34999;50.940;3.998;2022-12-29T15:50:15;5.83;;;2.30;;
48945;SDS011;34999;50.940;3.998;2022-12-29T15:52:49;6.70;;;1.90;;
48945;SDS011;34999;50.940;3.998;2022-12-29T15:55:19;2.03;;;1.60;;